Time;durP1;ratioP1;P1;durP2;ratioP2;P2;SDS_P1;SDS_P2;PMS_P1;PMS_P2;Temp;Humidity;BMP_temperature;BMP_pressure;BME280_temperature;BME280_humidity;BME280_pressure;Samples;Min_cycle;Max_cycle;Signal;HPM_P1;HPM_P2
2020/12/06 00:01:18;;;;;;;24.20;14.47;;;7.00;99.90;;;;;;5018975;28;20457;-64
2020/12/06 00:03:45;;;;;;;26.73;16.07;;;7.00;99.90;;;;;;5018762;28;20445;-64
2020/12/06 00:06:11;;;;;;;23.60;14.60;;;7.00;99.90;;;;;;5018851;28;20498;-64
2020/12/06 00:08:38;;;;;;;25.27;14.87;;;7.00;99.90;;;;;;5019532;28;20503;-64
2020/12/06 00:11:05;;;;;;;26.60;16.10;;;7.00;99.90;;;;;;5018942;28;20485;-64
2020/12/06 00:13:32;;;;;;;25.00;14.67;;;7.00;99.90;;;;;;5018528;28;20524;-64
2020/12/06 00:15:58;;;;;;;29.30;18.60;;;7.00;99.90;;;;;;5018225;28;20495;-65
2020/12/06 00:18:25;;;;;;;27.73;16.20;;;7.00;99.90;;;;;;5018408;28;20496;-65
2020/12/06 00:20:52;;;;;;;27.53;16.17;;;7.00;99.90;;;;;;5019290;28;20508;-65
2020/12/06 00:23:20;;;;;;;26.10;15.77;;;7.00;99.90;;;;;;5017864;28;20455;-65
2020/12/06 00:25:48;;;;;;;24.30;15.80;;;7.00;99.90;;;;;;5019423;28;20472;-65
2020/12/06 00:28:15;;;;;;;27.60;17.50;;;6.90;99.90;;;;;;5018951;28;20893;-64
2020/12/06 00:30:41;;;;;;;29.00;18.33;;;6.90;99.90;;;;;;5018936;28;20531;-64
2020/12/06 00:33:08;;;;;;;32.77;18.37;;;6.90;99.90;;;;;;5019188;28;20451;-65
2020/12/06 00:35:34;;;;;;;31.07;17.43;;;6.80;99.90;;;;;;5018445;28;20476;-65
2020/12/06 00:38:02;;;;;;;27.10;16.43;;;6.80;99.90;;;;;;5018087;28;20488;-65
2020/12/06 00:40:28;;;;;;;26.33;17.03;;;6.80;99.90;;;;;;5018088;28;20555;-65
2020/12/06 00:42:54;;;;;;;27.80;18.27;;;6.80;99.90;;;;;;5021624;28;20516;-65
2020/12/06 00:45:21;;;;;;;27.17;16.53;;;6.70;99.90;;;;;;5020329;28;20445;-64
2020/12/06 00:47:47;;;;;;;31.10;17.10;;;6.70;99.90;;;;;;5027809;28;20570;-65
2020/12/06 00:50:14;;;;;;;30.20;18.83;;;6.70;99.90;;;;;;5034123;28;20861;-65
2020/12/06 00:52:40;;;;;;;31.30;17.53;;;6.60;99.90;;;;;;5035054;28;20474;-65
2020/12/06 00:55:07;;;;;;;29.50;17.67;;;6.60;99.90;;;;;;5037222;28;20455;-64
2020/12/06 00:57:34;;;;;;;30.20;19.47;;;6.60;99.90;;;;;;5038137;28;20535;-64
2020/12/06 01:00:00;;;;;;;30.50;18.73;;;6.60;99.90;;;;;;5042892;28;20444;-64
2020/12/06 01:02:27;;;;;;;34.27;17.50;;;6.50;99.90;;;;;;5037867;28;20467;-64
2020/12/06 01:04:53;;;;;;;27.63;19.80;;;6.50;99.90;;;;;;5038361;28;20483;-64
2020/12/06 01:07:20;;;;;;;32.40;18.77;;;6.50;99.90;;;;;;5037979;28;20515;-64
2020/12/06 01:09:46;;;;;;;32.80;19.93;;;6.50;99.90;;;;;;5037579;28;20559;-64
2020/12/06 01:12:13;;;;;;;38.03;22.57;;;6.50;99.90;;;;;;5037961;28;20519;-64
2020/12/06 01:14:39;;;;;;;31.80;19.53;;;6.50;99.90;;;;;;5040868;28;20479;-64
2020/12/06 01:17:06;;;;;;;33.43;19.63;;;6.50;99.90;;;;;;5038102;28;20832;-64
2020/12/06 01:19:32;;;;;;;32.40;18.33;;;6.50;99.90;;;;;;5038001;28;20467;-64
2020/12/06 01:21:59;;;;;;;34.63;20.03;;;6.50;99.90;;;;;;5035447;28;20851;-65
2020/12/06 01:24:25;;;;;;;35.47;20.83;;;6.50;99.90;;;;;;5035477;28;20458;-64
2020/12/06 01:26:51;;;;;;;35.77;20.30;;;6.50;99.90;;;;;;5036802;28;20484;-64
2020/12/06 01:29:19;;;;;;;41.27;21.57;;;6.50;99.90;;;;;;5037227;28;20523;-64
2020/12/06 01:31:45;;;;;;;40.20;22.13;;;6.60;99.90;;;;;;5037103;28;20484;-64
2020/12/06 01:34:12;;;;;;;34.43;19.83;;;6.50;99.90;;;;;;5038025;28;20474;-63
2020/12/06 01:36:38;;;;;;;36.03;21.20;;;6.50;99.90;;;;;;5038128;28;20504;-64
2020/12/06 01:39:05;;;;;;;32.97;21.57;;;6.50;99.90;;;;;;5037516;28;20468;-64
2020/12/06 01:41:32;;;;;;;34.30;20.37;;;6.50;99.90;;;;;;5038492;28;20457;-65
2020/12/06 01:43:59;;;;;;;36.53;19.47;;;6.50;99.90;;;;;;5038604;28;20463;-65
2020/12/06 01:46:27;;;;;;;36.20;20.90;;;6.50;99.90;;;;;;5037798;28;20534;-65
2020/12/06 01:48:54;;;;;;;36.40;20.30;;;6.50;99.90;;;;;;5037737;28;20519;-63
2020/12/06 01:51:22;;;;;;;35.97;20.27;;;6.50;99.90;;;;;;5036654;28;20512;-65
2020/12/06 01:53:52;;;;;;;37.33;22.20;;;6.50;99.90;;;;;;5036782;28;20847;-64
2020/12/06 01:56:19;;;;;;;33.77;21.60;;;6.40;99.90;;;;;;5036949;28;20467;-64
2020/12/06 01:58:45;;;;;;;35.43;20.80;;;6.40;99.90;;;;;;5039093;28;20479;-63
2020/12/06 02:01:12;;;;;;;34.33;18.70;;;6.40;99.90;;;;;;5040908;28;20511;-64
2020/12/06 02:03:39;;;;;;;37.90;20.50;;;6.40;99.90;;;;;;5041051;28;20512;-65
2020/12/06 02:06:07;;;;;;;36.93;21.77;;;6.40;99.90;;;;;;5040758;28;20440;-65
2020/12/06 02:08:34;;;;;;;34.80;19.90;;;6.40;99.90;;;;;;5040395;28;20433;-66
2020/12/06 02:11:00;;;;;;;35.90;22.60;;;6.30;99.90;;;;;;5041721;28;20503;-65
2020/12/06 02:13:27;;;;;;;30.07;20.00;;;6.30;99.90;;;;;;5041026;28;20479;-66
2020/12/06 02:15:54;;;;;;;34.50;21.53;;;6.30;99.90;;;;;;5041249;28;20483;-65
2020/12/06 02:18:21;;;;;;;40.33;21.93;;;6.30;99.90;;;;;;5041496;28;20552;-64
2020/12/06 02:20:49;;;;;;;38.53;20.57;;;6.30;99.90;;;;;;5040623;28;20515;-64
2020/12/06 02:23:16;;;;;;;37.90;21.77;;;6.30;99.90;;;;;;5041742;28;20451;-63
2020/12/06 02:25:42;;;;;;;34.90;20.43;;;6.20;99.90;;;;;;5041145;28;20466;-64
2020/12/06 02:28:09;;;;;;;30.00;19.40;;;6.20;99.90;;;;;;5040844;28;20527;-64
2020/12/06 02:30:35;;;;;;;37.33;21.50;;;6.30;99.90;;;;;;5040895;28;20500;-64
2020/12/06 02:33:04;;;;;;;35.90;21.80;;;6.20;99.90;;;;;;5041432;28;20525;-65
2020/12/06 02:35:31;;;;;;;32.63;19.73;;;6.20;99.90;;;;;;5039017;28;20437;-65
2020/12/06 02:37:59;;;;;;;34.30;18.33;;;6.20;99.90;;;;;;5040796;28;20924;-64
2020/12/06 02:40:25;;;;;;;33.83;19.63;;;6.20;99.90;;;;;;5040686;28;20547;-65
2020/12/06 02:42:51;;;;;;;35.83;19.63;;;6.30;99.90;;;;;;5040759;28;20830;-64
2020/12/06 02:45:18;;;;;;;35.37;18.90;;;6.30;99.90;;;;;;5040808;28;20483;-65
2020/12/06 02:47:44;;;;;;;29.10;18.47;;;6.30;99.90;;;;;;5040400;28;20498;-64
2020/12/06 02:50:11;;;;;;;38.80;20.90;;;6.30;99.90;;;;;;5039775;28;20528;-64
2020/12/06 02:52:37;;;;;;;36.07;19.80;;;6.30;99.90;;;;;;5040196;28;20469;-65
2020/12/06 02:55:05;;;;;;;34.10;19.03;;;6.30;99.90;;;;;;5041916;28;20531;-65
2020/12/06 02:57:31;;;;;;;33.17;20.00;;;6.30;99.90;;;;;;5041020;28;20527;-64
2020/12/06 02:59:58;;;;;;;30.40;17.20;;;6.30;99.90;;;;;;5041482;28;20773;-64
2020/12/06 03:02:24;;;;;;;34.03;16.80;;;6.40;99.90;;;;;;5039922;28;20531;-65
2020/12/06 03:04:50;;;;;;;23.70;18.20;;;6.40;99.90;;;;;;5048056;28;20444;-64
2020/12/06 03:07:19;;;;;;;38.83;19.30;;;6.40;99.90;;;;;;5040654;28;20507;-63
2020/12/06 03:09:46;;;;;;;33.43;18.27;;;6.40;99.90;;;;;;5039387;28;20543;-64
2020/12/06 03:12:13;;;;;;;28.57;17.80;;;6.40;99.90;;;;;;5040053;28;20516;-64
2020/12/06 03:14:54;;;;;;;34.90;18.60;;;6.40;99.90;;;;;;5213290;22;20538;-63
2020/12/06 03:17:34;;;;;;;33.97;19.60;;;6.40;99.90;;;;;;5000738;28;20603;-63
2020/12/06 03:20:00;;;;;;;29.43;17.93;;;6.50;99.90;;;;;;5001058;28;20870;-64
2020/12/06 03:22:32;;;;;;;24.33;15.20;;;6.50;99.90;;;;;;5000555;28;20530;-64
2020/12/06 03:24:59;;;;;;;23.40;16.00;;;6.50;99.90;;;;;;5000698;28;20450;-64
2020/12/06 03:27:27;;;;;;;27.00;15.50;;;6.50;99.90;;;;;;5000706;28;20442;-64
2020/12/06 03:29:54;;;;;;;28.27;18.00;;;6.50;99.90;;;;;;5000242;28;20842;-64
2020/12/06 03:32:20;;;;;;;28.63;16.67;;;6.60;99.90;;;;;;4999628;28;20524;-65
2020/12/06 03:34:47;;;;;;;25.17;15.27;;;6.60;99.90;;;;;;4999779;28;20831;-64
2020/12/06 03:37:13;;;;;;;27.07;16.43;;;6.60;99.90;;;;;;5001857;28;20461;-64
2020/12/06 03:39:39;;;;;;;28.47;16.93;;;6.60;99.90;;;;;;5000040;28;20520;-64
2020/12/06 03:42:09;;;;;;;26.63;15.43;;;6.60;99.90;;;;;;5004654;28;20437;-65
2020/12/06 03:44:36;;;;;;;28.97;15.80;;;6.60;99.90;;;;;;5005968;28;20482;-64
2020/12/06 03:47:02;;;;;;;24.63;16.30;;;6.60;99.90;;;;;;5005851;28;20482;-64
2020/12/06 03:49:29;;;;;;;22.87;14.60;;;6.60;99.90;;;;;;5005326;28;20484;-65
2020/12/06 03:51:55;;;;;;;28.13;15.90;;;6.60;99.90;;;;;;5005470;28;20568;-64
2020/12/06 03:54:21;;;;;;;28.43;16.50;;;6.70;99.90;;;;;;4988360;28;20517;-64
2020/12/06 03:56:48;;;;;;;24.00;15.63;;;6.80;99.90;;;;;;4984598;28;20846;-65
2020/12/06 03:59:14;;;;;;;25.03;14.93;;;6.80;99.90;;;;;;4984814;28;20479;-64
2020/12/06 04:01:41;;;;;;;24.73;15.43;;;6.90;99.90;;;;;;4984966;28;20494;-65
2020/12/06 04:04:08;;;;;;;24.83;14.83;;;6.80;99.90;;;;;;4985557;28;20446;-64
2020/12/06 04:06:34;;;;;;;27.70;14.50;;;6.90;99.90;;;;;;4986317;28;20453;-64
2020/12/06 04:09:00;;;;;;;24.33;15.87;;;6.90;99.90;;;;;;4985028;28;20481;-64
2020/12/06 04:11:27;;;;;;;24.47;14.53;;;6.90;99.90;;;;;;4986242;28;20528;-64
2020/12/06 04:13:53;;;;;;;23.77;13.40;;;7.00;99.90;;;;;;4985632;28;20519;-65
2020/12/06 04:16:20;;;;;;;25.13;14.33;;;6.90;99.90;;;;;;4985361;28;20489;-64
2020/12/06 04:18:47;;;;;;;26.33;15.13;;;7.00;99.90;;;;;;4985328;28;20458;-64
2020/12/06 04:21:13;;;;;;;25.10;14.00;;;7.00;99.90;;;;;;4981922;28;20512;-65
2020/12/06 04:23:40;;;;;;;25.30;15.40;;;7.00;99.90;;;;;;4979590;28;20470;-64
2020/12/06 04:26:06;;;;;;;24.73;16.13;;;7.00;99.90;;;;;;4976913;28;20471;-64
2020/12/06 04:28:33;;;;;;;26.00;15.20;;;7.00;99.90;;;;;;4979680;28;20471;-65
2020/12/06 04:30:59;;;;;;;21.70;14.47;;;7.00;99.90;;;;;;4982258;28;20959;-65
2020/12/06 04:33:25;;;;;;;24.40;15.53;;;7.00;99.90;;;;;;4979088;28;20493;-65
2020/12/06 04:35:53;;;;;;;23.53;16.37;;;7.00;99.90;;;;;;4979263;28;20533;-64
2020/12/06 04:38:19;;;;;;;23.70;14.60;;;7.00;99.90;;;;;;4979586;28;20454;-64
2020/12/06 04:40:46;;;;;;;22.93;15.30;;;7.00;99.90;;;;;;4980325;28;20518;-64
2020/12/06 04:43:14;;;;;;;27.73;14.13;;;7.00;99.90;;;;;;4979515;28;20522;-64
2020/12/06 04:45:42;;;;;;;26.07;15.90;;;7.00;99.90;;;;;;4979378;28;20446;-63
2020/12/06 04:48:09;;;;;;;31.23;14.13;;;6.90;99.90;;;;;;4979872;28;20459;-64
2020/12/06 04:50:37;;;;;;;21.83;14.57;;;7.00;99.90;;;;;;4979405;28;20972;-64
2020/12/06 04:53:06;;;;;;;21.90;15.13;;;6.90;99.90;;;;;;4979268;28;20493;-64
2020/12/06 04:55:34;;;;;;;21.90;14.90;;;7.00;99.90;;;;;;4979768;28;20481;-64
2020/12/06 04:58:01;;;;;;;21.37;13.10;;;7.00;99.90;;;;;;4979613;28;20470;-64
2020/12/06 05:00:31;;;;;;;25.23;16.00;;;7.00;99.90;;;;;;4983217;28;20955;-65
2020/12/06 05:03:00;;;;;;;24.07;16.13;;;7.00;99.90;;;;;;4979781;28;20478;-64
2020/12/06 05:05:36;;;;;;;26.83;15.73;;;7.00;99.90;;;;;;4979833;28;20452;-64
2020/12/06 05:08:07;;;;;;;20.33;13.80;;;7.00;99.90;;;;;;4979414;28;20509;-64
2020/12/06 05:10:41;;;;;;;22.73;14.80;;;7.00;99.90;;;;;;4985088;28;20958;-64
2020/12/06 05:13:08;;;;;;;28.27;15.87;;;6.90;99.90;;;;;;4994357;28;20517;-64
2020/12/06 05:15:35;;;;;;;25.57;15.67;;;7.00;99.90;;;;;;4997308;28;20868;-64
2020/12/06 05:18:03;;;;;;;22.30;15.07;;;7.00;99.90;;;;;;4998935;28;20497;-64
2020/12/06 05:20:29;;;;;;;29.03;14.70;;;7.00;99.90;;;;;;4998812;28;20464;-64
2020/12/06 05:22:56;;;;;;;27.53;15.53;;;7.00;99.90;;;;;;4998505;28;20545;-64
2020/12/06 05:25:23;;;;;;;27.27;15.47;;;7.10;99.90;;;;;;4998957;28;20468;-64
2020/12/06 05:27:50;;;;;;;24.00;14.43;;;7.10;99.90;;;;;;4998587;28;20448;-65
2020/12/06 05:30:17;;;;;;;25.07;14.20;;;7.00;99.90;;;;;;4998130;28;20508;-65
2020/12/06 05:32:43;;;;;;;21.40;15.03;;;7.00;99.90;;;;;;4998125;28;20572;-64
2020/12/06 05:35:11;;;;;;;23.43;14.00;;;7.00;99.90;;;;;;5002402;28;20814;-65
2020/12/06 05:37:38;;;;;;;30.50;15.60;;;7.00;99.90;;;;;;5002724;28;20481;-65
2020/12/06 05:40:06;;;;;;;34.70;14.43;;;7.00;99.90;;;;;;5002397;28;20549;-64
2020/12/06 05:42:35;;;;;;;21.70;16.00;;;7.00;99.90;;;;;;5002650;28;20536;-66
2020/12/06 05:45:02;;;;;;;26.43;14.37;;;7.00;99.90;;;;;;5001575;28;20528;-67
2020/12/06 05:47:28;;;;;;;20.50;14.73;;;7.00;99.90;;;;;;5002185;28;20492;-65
2020/12/06 05:49:56;;;;;;;24.23;13.77;;;7.00;99.90;;;;;;5006612;28;20465;-65
2020/12/06 05:52:23;;;;;;;23.23;13.90;;;7.00;99.90;;;;;;5004517;28;20520;-65
2020/12/06 05:54:49;;;;;;;20.73;15.10;;;7.00;99.90;;;;;;4998063;28;20457;-65
2020/12/06 05:57:16;;;;;;;26.50;14.57;;;7.00;99.90;;;;;;5003986;28;20537;-64
2020/12/06 05:59:44;;;;;;;29.07;13.33;;;7.00;99.90;;;;;;5004885;28;20480;-64
2020/12/06 06:02:12;;;;;;;23.77;15.03;;;7.00;99.90;;;;;;5006118;28;20434;-65
2020/12/06 06:04:40;;;;;;;27.07;15.17;;;7.00;99.90;;;;;;5007392;28;20439;-64
2020/12/06 06:07:12;;;;;;;24.27;15.33;;;7.00;99.90;;;;;;5006397;28;20504;-64
2020/12/06 06:09:42;;;;;;;25.97;15.37;;;7.10;99.90;;;;;;5006937;28;20487;-64
2020/12/06 06:12:28;;;;;;;25.77;15.20;;;7.00;99.90;;;;;;5006553;28;20516;-65
2020/12/06 06:14:57;;;;;;;27.20;14.90;;;7.10;99.90;;;;;;5006817;28;20470;-64
2020/12/06 06:17:24;;;;;;;25.10;14.60;;;7.00;99.90;;;;;;5007431;28;20430;-64
2020/12/06 06:19:51;;;;;;;22.07;14.93;;;7.10;99.90;;;;;;5006982;28;20450;-65
2020/12/06 06:22:21;;;;;;;27.33;14.60;;;7.10;99.90;;;;;;5007487;28;20430;-64
2020/12/06 06:24:49;;;;;;;22.03;12.60;;;7.10;99.90;;;;;;5006904;28;20505;-64
2020/12/06 06:27:15;;;;;;;26.07;15.07;;;7.10;99.90;;;;;;5006723;28;20446;-64
2020/12/06 06:29:42;;;;;;;24.10;14.20;;;7.10;99.90;;;;;;5006497;28;20481;-65
2020/12/06 06:32:10;;;;;;;21.87;15.20;;;7.10;99.90;;;;;;5006388;28;20880;-65
2020/12/06 06:34:37;;;;;;;22.80;13.60;;;7.20;99.90;;;;;;5007513;28;20461;-65
2020/12/06 06:37:12;;;;;;;22.73;14.30;;;7.20;99.90;;;;;;5007592;28;20503;-65
2020/12/06 06:39:39;;;;;;;23.60;13.30;;;7.20;99.90;;;;;;5006752;28;20461;-66
2020/12/06 06:42:09;;;;;;;24.70;16.20;;;7.20;99.90;;;;;;5006723;28;20561;-66
2020/12/06 06:44:37;;;;;;;27.43;16.77;;;7.30;99.90;;;;;;5006873;28;20470;-66
2020/12/06 06:47:06;;;;;;;19.53;12.83;;;7.30;99.90;;;;;;5006274;28;20482;-67
2020/12/06 06:49:49;;;;;;;22.07;14.60;;;7.30;99.90;;;;;;5008406;28;20497;-67
2020/12/06 06:52:17;;;;;;;20.40;14.10;;;7.30;99.90;;;;;;5004438;28;20553;-67
2020/12/06 06:54:49;;;;;;;22.17;15.07;;;7.30;99.90;;;;;;5005607;28;20486;-67
2020/12/06 06:57:18;;;;;;;26.67;14.27;;;7.40;99.90;;;;;;5005003;28;20451;-67
2020/12/06 06:59:46;;;;;;;28.33;14.60;;;7.40;99.90;;;;;;5004967;28;20530;-67
2020/12/06 07:02:30;;;;;;;28.20;15.10;;;7.40;99.90;;;;;;5005065;28;20795;-67
2020/12/06 07:04:58;;;;;;;21.40;12.00;;;7.40;99.90;;;;;;5005003;28;20472;-67
2020/12/06 07:07:38;;;;;;;21.30;12.40;;;7.40;99.90;;;;;;5005094;28;20449;-67
2020/12/06 07:10:05;;;;;;;25.33;13.60;;;7.40;99.90;;;;;;5004332;28;20469;-67
2020/12/06 07:12:37;;;;;;;26.00;14.53;;;7.40;99.90;;;;;;4997524;28;20568;-67
2020/12/06 07:15:07;;;;;;;30.27;15.40;;;7.40;99.90;;;;;;4995491;28;20489;-66
2020/12/06 07:17:33;;;;;;;20.70;14.27;;;7.50;99.90;;;;;;4995264;28;20462;-66
2020/12/06 07:20:03;;;;;;;24.20;13.73;;;7.50;99.90;;;;;;4994182;28;20460;-67
2020/12/06 07:22:29;;;;;;;22.17;14.03;;;7.50;99.90;;;;;;4993979;28;20464;-66
2020/12/06 07:24:56;;;;;;;22.77;13.30;;;7.50;99.90;;;;;;4995771;28;20545;-66
2020/12/06 07:27:22;;;;;;;20.50;13.50;;;7.60;99.90;;;;;;5000868;28;20521;-64
2020/12/06 07:29:49;;;;;;;24.20;15.00;;;7.60;99.90;;;;;;5002448;28;20497;-65
2020/12/06 07:32:16;;;;;;;25.40;14.30;;;7.60;99.90;;;;;;5002573;28;20548;-64
2020/12/06 07:34:42;;;;;;;21.33;13.30;;;7.60;99.90;;;;;;5001568;28;20480;-64
2020/12/06 07:37:09;;;;;;;22.20;13.60;;;7.70;99.90;;;;;;5004748;28;20473;-65
2020/12/06 07:39:42;;;;;;;24.10;14.10;;;7.70;99.90;;;;;;5005018;28;20549;-62
2020/12/06 07:42:08;;;;;;;19.27;13.30;;;7.80;99.90;;;;;;5005060;28;20442;-61
2020/12/06 07:44:44;;;;;;;19.00;12.07;;;7.80;99.90;;;;;;5004928;28;20466;-60
2020/12/06 07:47:11;;;;;;;21.27;13.20;;;7.90;99.90;;;;;;5004813;28;20430;-61
2020/12/06 07:49:45;;;;;;;17.37;12.40;;;8.00;99.90;;;;;;5005523;28;20480;-62
2020/12/06 07:52:17;;;;;;;21.60;12.50;;;8.10;99.90;;;;;;5005011;28;20481;-61
2020/12/06 07:54:57;;;;;;;24.77;13.13;;;8.20;99.90;;;;;;5004525;28;20511;-60
2020/12/06 07:57:38;;;;;;;19.80;12.07;;;8.20;99.90;;;;;;5003836;28;20473;-61
2020/12/06 08:00:07;;;;;;;21.60;13.50;;;8.40;99.90;;;;;;5004458;28;20522;-61
2020/12/06 08:02:36;;;;;;;17.37;12.03;;;8.40;99.90;;;;;;5004464;28;20465;-62
2020/12/06 08:05:03;;;;;;;16.13;10.50;;;8.40;99.90;;;;;;5003734;28;20504;-62
2020/12/06 08:07:37;;;;;;;17.57;11.33;;;8.50;99.90;;;;;;5002714;28;20489;-61
2020/12/06 08:10:05;;;;;;;16.57;12.50;;;8.50;99.90;;;;;;5002245;28;20476;-61
2020/12/06 08:12:34;;;;;;;21.43;12.60;;;8.60;99.90;;;;;;5001779;28;21020;-61
2020/12/06 08:15:01;;;;;;;22.70;12.60;;;8.60;99.90;;;;;;5002719;28;20518;-61
2020/12/06 08:17:44;;;;;;;15.47;11.73;;;8.60;99.90;;;;;;5003448;28;20477;-61
2020/12/06 08:20:12;;;;;;;16.13;11.40;;;8.70;99.90;;;;;;5002571;28;20458;-61
2020/12/06 08:22:50;;;;;;;16.67;11.77;;;8.70;99.90;;;;;;5002146;28;20474;-61
2020/12/06 08:25:19;;;;;;;17.13;10.43;;;8.80;99.90;;;;;;5001892;28;20474;-63
2020/12/06 08:27:46;;;;;;;22.13;11.70;;;8.80;99.90;;;;;;5001972;28;20794;-62
2020/12/06 08:30:14;;;;;;;19.30;12.50;;;8.80;99.90;;;;;;5002635;28;20533;-61
2020/12/06 08:32:40;;;;;;;16.37;10.63;;;8.90;99.90;;;;;;5002031;28;20625;-61
2020/12/06 08:35:06;;;;;;;16.93;13.10;;;8.90;99.90;;;;;;5002305;28;20807;-62
2020/12/06 08:37:34;;;;;;;20.00;11.57;;;8.90;99.90;;;;;;5001983;28;20525;-62
2020/12/06 08:40:04;;;;;;;19.17;11.73;;;9.00;99.90;;;;;;5000893;28;20504;-62
2020/12/06 08:42:30;;;;;;;16.33;10.20;;;9.00;99.90;;;;;;5001245;28;20466;-61
2020/12/06 08:44:58;;;;;;;18.13;11.37;;;9.00;99.90;;;;;;5001397;28;20442;-61
2020/12/06 08:47:26;;;;;;;18.80;11.60;;;9.10;99.90;;;;;;5001587;28;20462;-61
2020/12/06 08:50:07;;;;;;;18.80;12.20;;;9.10;99.90;;;;;;4997955;28;20482;-61
2020/12/06 08:52:34;;;;;;;16.73;11.47;;;9.10;99.90;;;;;;4994410;28;20481;-61
2020/12/06 08:55:00;;;;;;;22.33;10.93;;;9.20;99.90;;;;;;4995067;28;20457;-61
2020/12/06 08:57:27;;;;;;;16.70;11.20;;;9.30;99.90;;;;;;4994736;28;20442;-62
2020/12/06 08:59:54;;;;;;;19.90;12.93;;;9.30;99.90;;;;;;4994956;28;20529;-61
2020/12/06 09:02:23;;;;;;;16.07;11.30;;;9.30;99.90;;;;;;4994721;28;20786;-61
2020/12/06 09:04:50;;;;;;;19.10;10.90;;;9.40;99.90;;;;;;4994868;28;20450;-61
2020/12/06 09:07:17;;;;;;;18.30;11.77;;;9.50;99.90;;;;;;4996551;28;20854;-62
2020/12/06 09:09:44;;;;;;;19.10;10.63;;;9.50;99.90;;;;;;4998698;28;20850;-61
2020/12/06 09:12:10;;;;;;;16.43;11.57;;;9.60;99.90;;;;;;4998615;28;20579;-61
2020/12/06 09:14:38;;;;;;;17.47;11.53;;;9.60;99.90;;;;;;4998364;28;20537;-62
2020/12/06 10:42:31;;;;;;;15.60;9.83;;;12.30;99.90;;;;;;5253200;23;20480;-63
2020/12/06 10:44:58;;;;;;;15.47;10.50;;;12.20;99.90;;;;;;4998246;28;20500;-62
2020/12/06 11:10:43;;;;;;;12.70;9.63;;;12.10;99.90;;;;;;5254973;23;20503;-63
2020/12/06 12:42:29;;;;;;;12.10;9.30;;;12.20;99.90;;;;;;4955789;29;20237;-62
2020/12/06 12:44:56;;;;;;;11.53;8.10;;;12.30;99.90;;;;;;4956504;29;20444;-61
2020/12/06 12:47:22;;;;;;;10.83;9.17;;;12.30;99.90;;;;;;4957502;29;20487;-62
2020/12/06 12:49:48;;;;;;;15.97;9.60;;;12.30;99.90;;;;;;4958567;29;20428;-62
2020/12/06 12:52:18;;;;;;;14.30;8.67;;;12.40;99.90;;;;;;4959375;29;20469;-61
2020/12/06 12:54:45;;;;;;;10.93;8.60;;;12.40;99.90;;;;;;4959022;29;20424;-60
2020/12/06 12:57:11;;;;;;;13.93;8.67;;;12.40;99.90;;;;;;4958856;29;20440;-61
2020/12/06 12:59:39;;;;;;;12.77;8.90;;;12.50;99.90;;;;;;4959773;29;20437;-61
2020/12/06 13:02:08;;;;;;;11.70;8.40;;;12.50;99.90;;;;;;4959921;28;20489;-61
2020/12/06 13:04:34;;;;;;;12.70;8.60;;;12.50;99.90;;;;;;4960219;29;20436;-61
2020/12/06 13:07:01;;;;;;;13.37;9.80;;;12.50;99.90;;;;;;4960240;28;20452;-61
2020/12/06 13:09:27;;;;;;;14.67;9.90;;;12.50;99.90;;;;;;4959052;29;20467;-62
2020/12/06 13:11:56;;;;;;;13.10;9.40;;;12.60;99.90;;;;;;4958848;29;20494;-62
2020/12/06 13:14:23;;;;;;;12.00;8.33;;;12.50;99.90;;;;;;4959861;28;20437;-61
2020/12/06 13:16:51;;;;;;;11.13;8.40;;;12.50;99.90;;;;;;4959654;29;20454;-61
2020/12/06 13:19:17;;;;;;;11.10;8.30;;;12.50;99.90;;;;;;4959058;29;20540;-62
2020/12/06 13:21:44;;;;;;;12.90;8.53;;;12.50;99.90;;;;;;4958817;29;20429;-61
2020/12/06 13:24:10;;;;;;;11.63;8.80;;;12.50;99.90;;;;;;4959038;29;20461;-62
2020/12/06 13:26:37;;;;;;;11.20;7.83;;;12.50;99.90;;;;;;4958444;29;20504;-62
2020/12/06 13:29:04;;;;;;;12.70;9.07;;;12.50;99.90;;;;;;4958618;29;20451;-61
2020/12/06 13:31:30;;;;;;;10.40;8.80;;;12.50;99.90;;;;;;4957996;29;20560;-61
2020/12/06 13:33:57;;;;;;;11.00;8.90;;;12.50;99.90;;;;;;4958837;29;20449;-62
2020/12/06 13:36:24;;;;;;;11.50;9.87;;;12.50;99.90;;;;;;4959387;28;20449;-61
2020/12/06 13:38:51;;;;;;;11.53;8.40;;;12.50;99.90;;;;;;4958814;29;20447;-61
2020/12/06 13:41:26;;;;;;;11.83;9.13;;;12.50;99.90;;;;;;4971001;28;20471;-61
2020/12/06 13:43:52;;;;;;;12.40;9.30;;;12.50;99.90;;;;;;4979764;29;20419;-61
2020/12/06 13:46:21;;;;;;;17.87;10.53;;;12.50;99.90;;;;;;4979027;29;20501;-62
2020/12/06 13:48:48;;;;;;;14.23;10.10;;;12.50;99.90;;;;;;4979453;28;20432;-61
2020/12/06 13:51:16;;;;;;;13.83;10.20;;;12.50;99.90;;;;;;4979443;28;20452;-60
2020/12/06 13:53:42;;;;;;;14.90;9.10;;;12.40;99.90;;;;;;4979833;28;20439;-62
2020/12/06 13:56:08;;;;;;;16.23;9.70;;;12.30;99.90;;;;;;4982662;28;20457;-62
2020/12/06 13:58:35;;;;;;;14.87;10.47;;;12.30;99.90;;;;;;4983255;28;20462;-63
2020/12/06 14:01:01;;;;;;;13.27;9.70;;;12.20;99.90;;;;;;4983604;28;20416;-62
2020/12/06 14:03:28;;;;;;;13.63;9.33;;;12.10;99.90;;;;;;4983512;28;20432;-62
2020/12/06 14:05:54;;;;;;;18.00;10.33;;;12.10;99.90;;;;;;4983480;28;20428;-61
2020/12/06 14:08:21;;;;;;;15.20;10.43;;;12.00;99.90;;;;;;4983392;28;20469;-61
2020/12/06 14:10:48;;;;;;;12.77;9.27;;;12.00;99.90;;;;;;4983400;28;20475;-62
2020/12/06 14:13:15;;;;;;;15.80;9.57;;;12.00;99.90;;;;;;4983158;28;20491;-61
2020/12/06 14:15:41;;;;;;;12.90;9.60;;;11.90;99.90;;;;;;4982999;28;20431;-62
2020/12/06 14:18:08;;;;;;;15.20;10.10;;;11.90;99.90;;;;;;4982814;28;20432;-62
2020/12/06 14:20:34;;;;;;;14.93;9.07;;;11.90;99.90;;;;;;4982367;28;20412;-61
2020/12/06 14:23:02;;;;;;;18.63;12.90;;;11.90;99.90;;;;;;4982321;29;20451;-61
2020/12/06 14:25:29;;;;;;;15.07;10.97;;;11.80;99.90;;;;;;4982089;29;20460;-61
2020/12/06 14:27:56;;;;;;;13.97;10.90;;;11.80;99.90;;;;;;4980891;28;20463;-61
2020/12/06 14:30:23;;;;;;;16.40;11.17;;;11.80;99.90;;;;;;4980756;29;20432;-60
2020/12/06 14:32:49;;;;;;;16.63;11.13;;;11.80;99.90;;;;;;4980454;29;20512;-61
2020/12/06 14:35:16;;;;;;;16.87;11.17;;;11.70;99.90;;;;;;4980508;29;20439;-61
2020/12/06 14:37:42;;;;;;;17.07;9.80;;;11.70;99.90;;;;;;4980901;29;20452;-61
2020/12/06 14:40:09;;;;;;;16.10;10.47;;;11.70;99.90;;;;;;4980417;28;20499;-60
2020/12/06 14:42:37;;;;;;;15.30;11.63;;;11.60;99.90;;;;;;4981299;29;20430;-61
2020/12/06 14:45:03;;;;;;;19.63;11.93;;;11.60;99.90;;;;;;4981407;28;20471;-61
2020/12/06 14:47:30;;;;;;;17.10;10.73;;;11.50;99.90;;;;;;4980503;29;20475;-61
2020/12/06 14:49:57;;;;;;;17.30;10.80;;;11.50;99.90;;;;;;4980447;29;20454;-60
2020/12/06 14:52:25;;;;;;;12.83;9.40;;;11.40;99.90;;;;;;4979912;29;20484;-61
2020/12/06 14:54:52;;;;;;;16.23;11.40;;;11.30;99.90;;;;;;4980667;29;20456;-61
2020/12/06 14:57:18;;;;;;;12.30;10.30;;;11.30;99.90;;;;;;4980399;29;20467;-61
2020/12/06 14:59:46;;;;;;;14.03;10.23;;;11.20;99.90;;;;;;4979780;29;20432;-61
2020/12/06 15:02:12;;;;;;;16.50;10.70;;;11.20;99.90;;;;;;4979923;28;20487;-61
2020/12/06 15:04:40;;;;;;;18.40;10.47;;;11.20;99.90;;;;;;4980886;28;20472;-61
2020/12/06 15:07:07;;;;;;;16.13;11.43;;;11.20;99.90;;;;;;4980926;29;20432;-62
2020/12/06 15:09:33;;;;;;;18.53;11.60;;;11.10;99.90;;;;;;4979729;29;20463;-61
2020/12/06 15:12:00;;;;;;;15.43;11.07;;;11.10;99.90;;;;;;4979933;29;20463;-62
2020/12/06 15:14:27;;;;;;;15.87;10.67;;;11.10;99.90;;;;;;4979862;28;20451;-61
2020/12/06 15:16:55;;;;;;;18.27;11.30;;;11.10;99.90;;;;;;4980245;29;20448;-60
2020/12/06 15:19:21;;;;;;;15.90;10.73;;;11.10;99.90;;;;;;4979872;29;20432;-61
2020/12/06 15:21:48;;;;;;;12.80;9.50;;;11.10;99.90;;;;;;4979724;29;20451;-62
2020/12/06 15:24:15;;;;;;;14.30;11.47;;;11.10;99.90;;;;;;4979176;29;20476;-62
2020/12/06 15:26:42;;;;;;;14.70;11.43;;;11.00;99.90;;;;;;4980398;29;20463;-62
2020/12/06 15:29:09;;;;;;;18.43;11.10;;;11.00;99.90;;;;;;4981302;29;20483;-61
2020/12/06 15:31:36;;;;;;;16.10;11.87;;;11.00;99.90;;;;;;4981334;28;20460;-62
2020/12/06 15:34:04;;;;;;;15.83;11.50;;;11.00;99.90;;;;;;4981450;28;20431;-62
2020/12/06 15:36:31;;;;;;;15.27;10.10;;;11.00;99.90;;;;;;4981267;28;20484;-61
2020/12/06 15:38:58;;;;;;;17.90;12.00;;;11.00;99.90;;;;;;4981427;28;20459;-61
2020/12/06 15:41:25;;;;;;;17.60;10.27;;;11.00;99.90;;;;;;4981302;28;20522;-60
2020/12/06 15:43:52;;;;;;;16.53;11.20;;;11.00;99.90;;;;;;4981293;28;20435;-61
2020/12/06 15:46:19;;;;;;;17.93;11.60;;;10.90;99.90;;;;;;4981318;28;20484;-62
2020/12/06 15:48:46;;;;;;;16.73;11.33;;;11.00;99.90;;;;;;4979834;29;20475;-62
2020/12/06 15:51:15;;;;;;;15.03;10.73;;;10.90;99.90;;;;;;4981260;28;20440;-61
2020/12/06 15:53:43;;;;;;;17.27;13.10;;;10.90;99.90;;;;;;4981005;28;20491;-61
2020/12/06 15:56:15;;;;;;;18.40;12.73;;;10.90;99.90;;;;;;4981199;28;20873;-62